Al-Bouqe, Yemen

1:50 AM AST on October 02, 2014 (GMT +0300)
Nejran | Change Station
CLOSE
Current Station
Airport
Location: Najran,
Elevation: 3976 ft
Nearby Weather Stations

Elev 3976 ft 17.61 °N, 44.42 °E | Updated -575 second ago

Clear
Clear
75 °F
Feels Like 75 °F
N
0
Wind Variable Wind from North

Today
High -- | Low -- °F
--% Chance of Precip.
Yesterday
High -- | Low -- °F
Precip. -- in
5:51 AM 5:49 PM
First Quarter, 52% visible
Pressure 30.01 in
Visibility -9999.0 miles
Clouds
Dew Point 39 °F
Humidity 27%
Rainfall 0.00 in
Snow Depth Not available.
UV Not available.
Pollen Not available.
Air Quality Not available.
Flu Activity Not available.
METAR OENG 302300Z 00000KT CAVOK 24/04 Q1016 NOSIG

More Conditions Fewer Conditions

Pressure 30.01 in
Visibility -9999.0 miles
Clouds
Dew Point 39 °F
Humidity 27%
Rainfall 0.00 in
Snow Depth Not available.
UV Not available.
Pollen Not available.
Air Quality Not available.
Flu Activity Not available.
METAR OENG 302300Z 00000KT CAVOK 24/04 Q1016 NOSIG

More Conditions Fewer Conditions

10-Day Weather Forecast

Almanac

Astronomy

Oct. 02, 2014 Rise Set
Actual Time 5:51 AM AST 5:49 PM AST
Civil Twilight 5:30 AM AST 6:11 PM AST
Nautical Twilight 5:05 AM AST 6:36 PM AST
Astronomical Twilight 4:40 AM AST 7:01 PM AST
Moon 12:51 PM AST (10/2) No Moon Set
Length of Visible Light 12h 41m
Length of Day
11h 57m
Tomorrow will be 0m 58s shorter.
First Quarter, 52% of the Moon is Illuminated
Oct 1
First Quarter
Oct 8
Full
Oct 15
Last Quarter
Oct 23
New
Oct 30
First Quarter

Yesterday's Extremes

Country Highs Country Lows

Community

WunderPhotos

Upload Photos

1,758,058 photos uploaded!

WunderBlogs® & News

By Dr. Jeff Masters
Director of Meteorology, Weather Underground
By Kari Strenfel
Meteorologist, Weather Underground
By Christopher C. Burt
Weather Historian, Weather Underground
October 1, 2014
October 1, 2014
October 1, 2014

Nearby

Snow Depth

Not available.

Earthquake Activity

City Distance Mag. Time & Date
No recent earthquake activity has been reported nearby.
Minimum magnitude displayed is 2.5.

Coastal Water Temperatures

Place Temperature
No Stations Reporting

Nearby Weather Stations